sensor_id;sensor_type;location;lat;lon;timestamp;P1;durP1;ratioP1;P2;durP2;ratioP2
48215;SDS011;34005;48.844;10.098;2023-12-20T00:01:30;2.38;;;1.52;;
48215;SDS011;34005;48.844;10.098;2023-12-20T00:03:57;2.67;;;2.33;;
48215;SDS011;34005;48.844;10.098;2023-12-20T00:06:26;1.73;;;1.63;;
48215;SDS011;34005;48.844;10.098;2023-12-20T00:08:54;2.10;;;1.90;;
48215;SDS011;34005;48.844;10.098;2023-12-20T00:11:22;2.20;;;1.67;;
48215;SDS011;34005;48.844;10.098;2023-12-20T00:13:49;2.15;;;1.70;;
48215;SDS011;34005;48.844;10.098;2023-12-20T00:16:17;2.08;;;1.80;;
48215;SDS011;34005;48.844;10.098;2023-12-20T00:18:45;2.60;;;1.63;;
48215;SDS011;34005;48.844;10.098;2023-12-20T00:21:13;2.15;;;1.95;;
48215;SDS011;34005;48.844;10.098;2023-12-20T00:23:42;2.00;;;1.80;;
48215;SDS011;34005;48.844;10.098;2023-12-20T00:26:09;2.10;;;1.67;;
48215;SDS011;34005;48.844;10.098;2023-12-20T00:28:37;2.88;;;1.80;;
48215;SDS011;34005;48.844;10.098;2023-12-20T00:31:05;2.22;;;2.00;;
48215;SDS011;34005;48.844;10.098;2023-12-20T00:33:32;1.83;;;1.40;;
48215;SDS011;34005;48.844;10.098;2023-12-20T00:36:00;1.58;;;1.45;;
48215;SDS011;34005;48.844;10.098;2023-12-20T00:38:28;2.60;;;1.80;;
48215;SDS011;34005;48.844;10.098;2023-12-20T00:40:57;3.00;;;1.95;;
48215;SDS011;34005;48.844;10.098;2023-12-20T00:43:24;2.08;;;1.48;;
48215;SDS011;34005;48.844;10.098;2023-12-20T00:45:53;1.48;;;1.38;;
48215;SDS011;34005;48.844;10.098;2023-12-20T00:48:21;2.28;;;1.30;;
48215;SDS011;34005;48.844;10.098;2023-12-20T00:50:49;1.77;;;1.40;;
48215;SDS011;34005;48.844;10.098;2023-12-20T00:53:17;1.63;;;1.52;;
48215;SDS011;34005;48.844;10.098;2023-12-20T00:55:44;1.67;;;1.58;;
48215;SDS011;34005;48.844;10.098;2023-12-20T00:58:13;2.00;;;1.60;;
48215;SDS011;34005;48.844;10.098;2023-12-20T01:00:42;1.40;;;1.30;;
48215;SDS011;34005;48.844;10.098;2023-12-20T01:03:10;1.42;;;1.33;;
48215;SDS011;34005;48.844;10.098;2023-12-20T01:05:38;1.65;;;1.20;;
48215;SDS011;34005;48.844;10.098;2023-12-20T01:08:05;2.60;;;1.33;;
48215;SDS011;34005;48.844;10.098;2023-12-20T01:10:33;1.30;;;1.20;;
48215;SDS011;34005;48.844;10.098;2023-12-20T01:13:01;1.17;;;1.08;;
48215;SDS011;34005;48.844;10.098;2023-12-20T01:15:30;2.55;;;1.20;;
48215;SDS011;34005;48.844;10.098;2023-12-20T01:17:57;1.40;;;1.30;;
48215;SDS011;34005;48.844;10.098;2023-12-20T01:20:25;1.80;;;1.30;;
48215;SDS011;34005;48.844;10.098;2023-12-20T01:22:53;4.05;;;1.42;;
48215;SDS011;34005;48.844;10.098;2023-12-20T01:25:21;3.65;;;1.30;;
48215;SDS011;34005;48.844;10.098;2023-12-20T01:27:48;1.35;;;1.25;;
48215;SDS011;34005;48.844;10.098;2023-12-20T01:30:16;1.27;;;1.17;;
48215;SDS011;34005;48.844;10.098;2023-12-20T01:32:45;1.70;;;1.50;;
48215;SDS011;34005;48.844;10.098;2023-12-20T01:35:13;2.08;;;1.25;;
48215;SDS011;34005;48.844;10.098;2023-12-20T01:37:41;1.73;;;1.38;;
48215;SDS011;34005;48.844;10.098;2023-12-20T01:40:09;1.23;;;1.02;;
48215;SDS011;34005;48.844;10.098;2023-12-20T01:42:37;1.20;;;1.10;;
48215;SDS011;34005;48.844;10.098;2023-12-20T01:45:05;1.73;;;1.33;;
48215;SDS011;34005;48.844;10.098;2023-12-20T01:47:33;1.52;;;1.20;;
48215;SDS011;34005;48.844;10.098;2023-12-20T01:50:03;2.53;;;1.20;;
48215;SDS011;34005;48.844;10.098;2023-12-20T01:52:34;1.20;;;1.10;;
48215;SDS011;34005;48.844;10.098;2023-12-20T01:55:02;1.10;;;1.00;;
48215;SDS011;34005;48.844;10.098;2023-12-20T01:57:37;1.95;;;1.33;;
48215;SDS011;34005;48.844;10.098;2023-12-20T02:00:05;1.10;;;1.00;;
48215;SDS011;34005;48.844;10.098;2023-12-20T02:02:35;0.98;;;0.98;;
48215;SDS011;34005;48.844;10.098;2023-12-20T02:05:07;1.73;;;1.50;;
48215;SDS011;34005;48.844;10.098;2023-12-20T02:07:36;1.05;;;0.98;;
48215;SDS011;34005;48.844;10.098;2023-12-20T02:10:04;1.10;;;1.00;;
48215;SDS011;34005;48.844;10.098;2023-12-20T02:12:32;2.03;;;1.50;;
48215;SDS011;34005;48.844;10.098;2023-12-20T02:14:59;1.35;;;1.23;;
48215;SDS011;34005;48.844;10.098;2023-12-20T02:17:27;3.38;;;1.55;;
48215;SDS011;34005;48.844;10.098;2023-12-20T02:19:54;1.83;;;1.30;;
48215;SDS011;34005;48.844;10.098;2023-12-20T02:22:24;1.13;;;1.02;;
48215;SDS011;34005;48.844;10.098;2023-12-20T02:24:51;2.38;;;1.23;;
48215;SDS011;34005;48.844;10.098;2023-12-20T02:27:19;0.95;;;0.95;;
48215;SDS011;34005;48.844;10.098;2023-12-20T02:29:48;1.58;;;1.27;;
48215;SDS011;34005;48.844;10.098;2023-12-20T02:32:16;1.77;;;1.20;;
48215;SDS011;34005;48.844;10.098;2023-12-20T02:34:45;1.30;;;0.98;;
48215;SDS011;34005;48.844;10.098;2023-12-20T02:37:14;2.85;;;1.02;;
48215;SDS011;34005;48.844;10.098;2023-12-20T02:39:43;1.48;;;1.23;;
48215;SDS011;34005;48.844;10.098;2023-12-20T02:42:11;2.28;;;1.35;;
48215;SDS011;34005;48.844;10.098;2023-12-20T02:44:39;1.73;;;0.98;;
48215;SDS011;34005;48.844;10.098;2023-12-20T02:47:06;1.10;;;1.00;;
48215;SDS011;34005;48.844;10.098;2023-12-20T02:49:34;1.20;;;1.10;;
48215;SDS011;34005;48.844;10.098;2023-12-20T02:52:02;1.20;;;1.10;;
48215;SDS011;34005;48.844;10.098;2023-12-20T02:54:29;2.03;;;1.17;;
48215;SDS011;34005;48.844;10.098;2023-12-20T02:56:58;1.45;;;1.20;;
48215;SDS011;34005;48.844;10.098;2023-12-20T02:59:26;1.13;;;0.95;;
48215;SDS011;34005;48.844;10.098;2023-12-20T03:01:53;1.23;;;1.13;;
48215;SDS011;34005;48.844;10.098;2023-12-20T03:04:21;0.85;;;0.85;;
48215;SDS011;34005;48.844;10.098;2023-12-20T03:06:49;0.82;;;0.82;;
48215;SDS011;34005;48.844;10.098;2023-12-20T03:09:17;1.30;;;1.20;;
48215;SDS011;34005;48.844;10.098;2023-12-20T03:11:45;3.08;;;1.17;;
48215;SDS011;34005;48.844;10.098;2023-12-20T03:14:14;2.47;;;1.20;;
48215;SDS011;34005;48.844;10.098;2023-12-20T03:16:41;2.58;;;0.98;;
48215;SDS011;34005;48.844;10.098;2023-12-20T03:19:09;0.77;;;0.77;;
48215;SDS011;34005;48.844;10.098;2023-12-20T03:21:36;1.65;;;1.23;;
48215;SDS011;34005;48.844;10.098;2023-12-20T03:24:04;1.30;;;1.20;;
48215;SDS011;34005;48.844;10.098;2023-12-20T03:26:32;1.10;;;1.10;;
48215;SDS011;34005;48.844;10.098;2023-12-20T03:29:00;1.20;;;1.10;;
48215;SDS011;34005;48.844;10.098;2023-12-20T03:31:29;1.30;;;1.10;;
48215;SDS011;34005;48.844;10.098;2023-12-20T03:33:56;1.50;;;1.23;;
48215;SDS011;34005;48.844;10.098;2023-12-20T03:36:24;1.05;;;0.90;;
48215;SDS011;34005;48.844;10.098;2023-12-20T03:38:52;1.30;;;1.00;;
48215;SDS011;34005;48.844;10.098;2023-12-20T03:41:19;1.00;;;0.95;;
48215;SDS011;34005;48.844;10.098;2023-12-20T03:43:47;1.95;;;1.13;;
48215;SDS011;34005;48.844;10.098;2023-12-20T03:46:14;0.85;;;0.85;;
48215;SDS011;34005;48.844;10.098;2023-12-20T03:48:44;1.40;;;1.02;;
48215;SDS011;34005;48.844;10.098;2023-12-20T03:51:11;1.17;;;1.08;;
48215;SDS011;34005;48.844;10.098;2023-12-20T03:53:39;0.60;;;0.60;;
48215;SDS011;34005;48.844;10.098;2023-12-20T03:56:07;0.75;;;0.70;;
48215;SDS011;34005;48.844;10.098;2023-12-20T03:58:33;1.00;;;0.73;;
48215;SDS011;34005;48.844;10.098;2023-12-20T04:01:01;0.80;;;0.80;;
48215;SDS011;34005;48.844;10.098;2023-12-20T04:03:29;0.93;;;0.82;;
48215;SDS011;34005;48.844;10.098;2023-12-20T04:05:58;0.43;;;0.30;;
48215;SDS011;34005;48.844;10.098;2023-12-20T04:08:25;0.40;;;0.40;;
48215;SDS011;34005;48.844;10.098;2023-12-20T04:10:53;0.75;;;0.75;;
48215;SDS011;34005;48.844;10.098;2023-12-20T04:13:21;0.60;;;0.60;;
48215;SDS011;34005;48.844;10.098;2023-12-20T04:15:48;0.50;;;0.50;;
48215;SDS011;34005;48.844;10.098;2023-12-20T04:18:18;1.48;;;0.40;;
48215;SDS011;34005;48.844;10.098;2023-12-20T04:20:45;1.13;;;0.60;;
48215;SDS011;34005;48.844;10.098;2023-12-20T04:23:14;1.05;;;0.80;;
48215;SDS011;34005;48.844;10.098;2023-12-20T04:25:42;1.00;;;0.82;;
48215;SDS011;34005;48.844;10.098;2023-12-20T04:28:10;0.60;;;0.60;;
48215;SDS011;34005;48.844;10.098;2023-12-20T04:30:37;0.40;;;0.40;;
48215;SDS011;34005;48.844;10.098;2023-12-20T04:33:05;0.40;;;0.40;;
48215;SDS011;34005;48.844;10.098;2023-12-20T04:35:33;0.60;;;0.60;;
48215;SDS011;34005;48.844;10.098;2023-12-20T04:38:00;1.17;;;0.45;;
48215;SDS011;34005;48.844;10.098;2023-12-20T04:40:29;0.40;;;0.30;;
48215;SDS011;34005;48.844;10.098;2023-12-20T04:42:57;0.63;;;0.45;;
48215;SDS011;34005;48.844;10.098;2023-12-20T04:45:24;0.52;;;0.32;;
48215;SDS011;34005;48.844;10.098;2023-12-20T04:47:52;0.70;;;0.40;;
48215;SDS011;34005;48.844;10.098;2023-12-20T04:50:19;0.50;;;0.50;;
48215;SDS011;34005;48.844;10.098;2023-12-20T04:52:48;0.40;;;0.40;;
48215;SDS011;34005;48.844;10.098;2023-12-20T04:55:15;0.38;;;0.38;;
48215;SDS011;34005;48.844;10.098;2023-12-20T04:57:44;0.25;;;0.25;;
48215;SDS011;34005;48.844;10.098;2023-12-20T05:00:13;0.68;;;0.45;;
48215;SDS011;34005;48.844;10.098;2023-12-20T05:02:41;0.30;;;0.30;;
48215;SDS011;34005;48.844;10.098;2023-12-20T05:05:09;0.40;;;0.30;;
48215;SDS011;34005;48.844;10.098;2023-12-20T05:07:37;0.30;;;0.30;;
48215;SDS011;34005;48.844;10.098;2023-12-20T05:10:05;0.40;;;0.40;;
48215;SDS011;34005;48.844;10.098;2023-12-20T05:12:34;0.40;;;0.40;;
48215;SDS011;34005;48.844;10.098;2023-12-20T05:15:04;0.50;;;0.50;;
48215;SDS011;34005;48.844;10.098;2023-12-20T05:17:33;0.30;;;0.30;;
48215;SDS011;34005;48.844;10.098;2023-12-20T05:20:01;1.17;;;0.63;;
48215;SDS011;34005;48.844;10.098;2023-12-20T05:22:30;0.50;;;0.30;;
48215;SDS011;34005;48.844;10.098;2023-12-20T05:24:57;1.13;;;0.93;;
48215;SDS011;34005;48.844;10.098;2023-12-20T05:27:25;1.60;;;0.52;;
48215;SDS011;34005;48.844;10.098;2023-12-20T05:29:52;0.45;;;0.45;;
48215;SDS011;34005;48.844;10.098;2023-12-20T05:32:25;0.63;;;0.50;;
48215;SDS011;34005;48.844;10.098;2023-12-20T05:34:52;0.95;;;0.57;;
48215;SDS011;34005;48.844;10.098;2023-12-20T05:37:20;0.30;;;0.30;;
48215;SDS011;34005;48.844;10.098;2023-12-20T05:39:48;0.30;;;0.30;;
48215;SDS011;34005;48.844;10.098;2023-12-20T05:42:15;0.70;;;0.32;;
48215;SDS011;34005;48.844;10.098;2023-12-20T05:44:43;0.55;;;0.55;;
48215;SDS011;34005;48.844;10.098;2023-12-20T05:47:10;4.03;;;2.45;;
48215;SDS011;34005;48.844;10.098;2023-12-20T05:49:38;14.82;;;9.05;;
48215;SDS011;34005;48.844;10.098;2023-12-20T05:52:06;3.00;;;1.70;;
48215;SDS011;34005;48.844;10.098;2023-12-20T05:54:34;2.38;;;1.20;;
48215;SDS011;34005;48.844;10.098;2023-12-20T05:57:01;1.15;;;0.85;;
48215;SDS011;34005;48.844;10.098;2023-12-20T05:59:29;0.82;;;0.75;;
48215;SDS011;34005;48.844;10.098;2023-12-20T06:01:56;1.60;;;0.98;;
48215;SDS011;34005;48.844;10.098;2023-12-20T06:04:24;0.68;;;0.60;;
48215;SDS011;34005;48.844;10.098;2023-12-20T06:06:53;0.73;;;0.73;;
48215;SDS011;34005;48.844;10.098;2023-12-20T06:09:21;1.00;;;0.80;;
48215;SDS011;34005;48.844;10.098;2023-12-20T06:11:49;0.85;;;0.80;;
48215;SDS011;34005;48.844;10.098;2023-12-20T06:14:17;1.00;;;0.80;;
48215;SDS011;34005;48.844;10.098;2023-12-20T06:16:45;1.30;;;0.73;;
48215;SDS011;34005;48.844;10.098;2023-12-20T06:19:12;2.08;;;1.35;;
48215;SDS011;34005;48.844;10.098;2023-12-20T06:21:40;0.80;;;0.80;;
48215;SDS011;34005;48.844;10.098;2023-12-20T06:24:11;1.15;;;1.05;;
48215;SDS011;34005;48.844;10.098;2023-12-20T06:26:39;0.85;;;0.85;;
48215;SDS011;34005;48.844;10.098;2023-12-20T06:29:07;0.95;;;0.95;;
48215;SDS011;34005;48.844;10.098;2023-12-20T06:31:34;1.52;;;1.10;;
48215;SDS011;34005;48.844;10.098;2023-12-20T06:34:02;1.00;;;1.00;;
48215;SDS011;34005;48.844;10.098;2023-12-20T06:36:30;1.80;;;1.48;;
48215;SDS011;34005;48.844;10.098;2023-12-20T06:38:57;1.73;;;1.52;;
48215;SDS011;34005;48.844;10.098;2023-12-20T06:41:26;1.58;;;1.42;;
48215;SDS011;34005;48.844;10.098;2023-12-20T06:43:55;1.35;;;1.10;;
48215;SDS011;34005;48.844;10.098;2023-12-20T06:46:22;1.30;;;1.20;;
48215;SDS011;34005;48.844;10.098;2023-12-20T06:48:50;1.02;;;1.02;;
48215;SDS011;34005;48.844;10.098;2023-12-20T06:51:18;1.27;;;1.00;;
48215;SDS011;34005;48.844;10.098;2023-12-20T06:53:46;1.17;;;1.08;;
48215;SDS011;34005;48.844;10.098;2023-12-20T06:56:14;1.23;;;1.08;;
48215;SDS011;34005;48.844;10.098;2023-12-20T06:58:46;1.38;;;1.27;;
48215;SDS011;34005;48.844;10.098;2023-12-20T07:01:14;0.90;;;0.90;;
48215;SDS011;34005;48.844;10.098;2023-12-20T07:03:43;1.42;;;1.30;;
48215;SDS011;34005;48.844;10.098;2023-12-20T07:06:10;1.20;;;1.10;;
48215;SDS011;34005;48.844;10.098;2023-12-20T07:08:38;0.90;;;0.80;;
48215;SDS011;34005;48.844;10.098;2023-12-20T07:11:06;0.88;;;0.85;;
48215;SDS011;34005;48.844;10.098;2023-12-20T07:13:34;1.10;;;1.00;;
48215;SDS011;34005;48.844;10.098;2023-12-20T07:16:03;1.40;;;1.30;;
48215;SDS011;34005;48.844;10.098;2023-12-20T07:18:31;1.30;;;1.20;;
48215;SDS011;34005;48.844;10.098;2023-12-20T07:20:58;1.48;;;1.33;;
48215;SDS011;34005;48.844;10.098;2023-12-20T07:23:26;1.45;;;1.35;;
48215;SDS011;34005;48.844;10.098;2023-12-20T07:25:54;1.67;;;1.58;;
48215;SDS011;34005;48.844;10.098;2023-12-20T07:28:21;1.95;;;1.75;;
48215;SDS011;34005;48.844;10.098;2023-12-20T07:30:49;1.70;;;1.60;;
48215;SDS011;34005;48.844;10.098;2023-12-20T07:33:18;1.80;;;1.70;;
48215;SDS011;34005;48.844;10.098;2023-12-20T07:35:46;1.98;;;1.77;;
48215;SDS011;34005;48.844;10.098;2023-12-20T07:38:14;1.70;;;1.60;;
48215;SDS011;34005;48.844;10.098;2023-12-20T07:40:41;1.75;;;1.65;;
48215;SDS011;34005;48.844;10.098;2023-12-20T07:43:09;1.58;;;1.48;;
48215;SDS011;34005;48.844;10.098;2023-12-20T07:45:36;1.60;;;1.50;;
48215;SDS011;34005;48.844;10.098;2023-12-20T07:48:04;1.77;;;1.67;;
48215;SDS011;34005;48.844;10.098;2023-12-20T07:50:35;1.75;;;1.65;;
48215;SDS011;34005;48.844;10.098;2023-12-20T07:53:03;2.15;;;2.00;;
48215;SDS011;34005;48.844;10.098;2023-12-20T07:55:31;2.22;;;1.80;;
48215;SDS011;34005;48.844;10.098;2023-12-20T07:57:58;2.05;;;1.95;;
48215;SDS011;34005;48.844;10.098;2023-12-20T08:00:26;2.10;;;1.90;;
48215;SDS011;34005;48.844;10.098;2023-12-20T08:02:53;2.40;;;2.25;;
48215;SDS011;34005;48.844;10.098;2023-12-20T08:05:21;2.53;;;2.30;;
48215;SDS011;34005;48.844;10.098;2023-12-20T08:07:50;2.60;;;2.40;;
48215;SDS011;34005;48.844;10.098;2023-12-20T08:10:18;2.33;;;2.20;;
48215;SDS011;34005;48.844;10.098;2023-12-20T08:12:46;3.05;;;2.85;;
48215;SDS011;34005;48.844;10.098;2023-12-20T08:15:13;3.60;;;2.95;;
48215;SDS011;34005;48.844;10.098;2023-12-20T08:17:41;3.08;;;2.88;;
48215;SDS011;34005;48.844;10.098;2023-12-20T08:20:10;3.00;;;2.80;;
48215;SDS011;34005;48.844;10.098;2023-12-20T08:22:44;3.22;;;3.00;;
48215;SDS011;34005;48.844;10.098;2023-12-20T08:25:13;3.58;;;2.78;;
48215;SDS011;34005;48.844;10.098;2023-12-20T08:27:41;3.20;;;2.88;;
48215;SDS011;34005;48.844;10.098;2023-12-20T08:30:10;2.85;;;2.65;;
48215;SDS011;34005;48.844;10.098;2023-12-20T08:32:38;2.95;;;2.75;;
48215;SDS011;34005;48.844;10.098;2023-12-20T08:35:06;4.45;;;3.42;;
48215;SDS011;34005;48.844;10.098;2023-12-20T08:37:35;3.55;;;3.15;;
48215;SDS011;34005;48.844;10.098;2023-12-20T08:40:03;3.47;;;3.17;;
48215;SDS011;34005;48.844;10.098;2023-12-20T08:42:33;3.50;;;3.20;;
48215;SDS011;34005;48.844;10.098;2023-12-20T08:45:01;3.50;;;3.20;;
48215;SDS011;34005;48.844;10.098;2023-12-20T08:47:30;3.90;;;3.60;;
48215;SDS011;34005;48.844;10.098;2023-12-20T08:49:58;4.10;;;3.70;;
48215;SDS011;34005;48.844;10.098;2023-12-20T08:52:26;3.63;;;3.25;;
48215;SDS011;34005;48.844;10.098;2023-12-20T08:54:55;3.65;;;3.35;;
48215;SDS011;34005;48.844;10.098;2023-12-20T08:57:23;3.08;;;2.78;;
48215;SDS011;34005;48.844;10.098;2023-12-20T08:59:52;3.05;;;2.85;;
48215;SDS011;34005;48.844;10.098;2023-12-20T09:02:20;3.55;;;3.25;;
48215;SDS011;34005;48.844;10.098;2023-12-20T09:04:48;2.88;;;2.67;;
48215;SDS011;34005;48.844;10.098;2023-12-20T09:07:22;2.83;;;2.63;;
48215;SDS011;34005;48.844;10.098;2023-12-20T09:09:50;4.78;;;3.10;;
48215;SDS011;34005;48.844;10.098;2023-12-20T09:12:19;3.03;;;2.78;;
48215;SDS011;34005;48.844;10.098;2023-12-20T09:14:47;3.20;;;2.70;;
48215;SDS011;34005;48.844;10.098;2023-12-20T09:17:17;3.40;;;3.10;;
48215;SDS011;34005;48.844;10.098;2023-12-20T09:19:45;3.50;;;3.20;;
48215;SDS011;34005;48.844;10.098;2023-12-20T09:22:13;3.35;;;3.05;;
48215;SDS011;34005;48.844;10.098;2023-12-20T09:24:40;5.50;;;3.10;;
48215;SDS011;34005;48.844;10.098;2023-12-20T09:27:08;4.22;;;3.83;;
48215;SDS011;34005;48.844;10.098;2023-12-20T09:29:35;3.83;;;3.40;;
48215;SDS011;34005;48.844;10.098;2023-12-20T09:32:03;4.68;;;3.38;;
48215;SDS011;34005;48.844;10.098;2023-12-20T09:34:32;3.95;;;3.50;;
48215;SDS011;34005;48.844;10.098;2023-12-20T09:37:00;3.80;;;3.42;;
48215;SDS011;34005;48.844;10.098;2023-12-20T09:39:29;3.88;;;3.58;;
48215;SDS011;34005;48.844;10.098;2023-12-20T09:42:00;4.15;;;3.70;;
48215;SDS011;34005;48.844;10.098;2023-12-20T09:44:28;3.42;;;3.13;;
48215;SDS011;34005;48.844;10.098;2023-12-20T09:46:57;3.88;;;3.47;;
48215;SDS011;34005;48.844;10.098;2023-12-20T09:49:25;3.95;;;3.55;;
48215;SDS011;34005;48.844;10.098;2023-12-20T09:51:56;3.22;;;2.70;;
48215;SDS011;34005;48.844;10.098;2023-12-20T09:54:24;3.55;;;2.70;;
48215;SDS011;34005;48.844;10.098;2023-12-20T09:56:54;4.47;;;2.80;;
48215;SDS011;34005;48.844;10.098;2023-12-20T09:59:21;5.68;;;3.00;;
48215;SDS011;34005;48.844;10.098;2023-12-20T10:01:49;4.35;;;3.03;;
48215;SDS011;34005;48.844;10.098;2023-12-20T10:09:23;2.92;;;2.72;;
48215;SDS011;34005;48.844;10.098;2023-12-20T10:11:53;2.53;;;2.17;;
48215;SDS011;34005;48.844;10.098;2023-12-20T10:14:23;4.03;;;2.83;;
48215;SDS011;34005;48.844;10.098;2023-12-20T10:16:52;3.88;;;2.42;;
48215;SDS011;34005;48.844;10.098;2023-12-20T10:19:22;3.90;;;2.90;;
48215;SDS011;34005;48.844;10.098;2023-12-20T10:21:50;3.25;;;2.40;;
48215;SDS011;34005;48.844;10.098;2023-12-20T10:24:19;3.25;;;2.75;;
48215;SDS011;34005;48.844;10.098;2023-12-20T10:26:55;4.32;;;3.03;;
48215;SDS011;34005;48.844;10.098;2023-12-20T10:29:33;2.47;;;2.22;;
48215;SDS011;34005;48.844;10.098;2023-12-20T10:32:22;3.10;;;2.50;;
48215;SDS011;34005;48.844;10.098;2023-12-20T10:34:51;3.50;;;2.55;;
48215;SDS011;34005;48.844;10.098;2023-12-20T10:37:21;3.97;;;2.83;;
48215;SDS011;34005;48.844;10.098;2023-12-20T10:39:51;4.75;;;2.40;;
48215;SDS011;34005;48.844;10.098;2023-12-20T10:42:25;4.25;;;2.65;;
48215;SDS011;34005;48.844;10.098;2023-12-20T10:44:55;6.10;;;2.83;;
48215;SDS011;34005;48.844;10.098;2023-12-20T10:47:24;3.97;;;2.60;;
48215;SDS011;34005;48.844;10.098;2023-12-20T10:49:54;3.10;;;2.20;;
48215;SDS011;34005;48.844;10.098;2023-12-20T10:52:23;7.30;;;3.30;;
48215;SDS011;34005;48.844;10.098;2023-12-20T10:54:53;4.90;;;2.28;;
48215;SDS011;34005;48.844;10.098;2023-12-20T10:57:22;4.45;;;2.30;;
48215;SDS011;34005;48.844;10.098;2023-12-20T10:59:55;3.38;;;2.47;;
48215;SDS011;34005;48.844;10.098;2023-12-20T11:02:31;4.13;;;2.15;;
48215;SDS011;34005;48.844;10.098;2023-12-20T11:05:04;4.25;;;2.15;;
48215;SDS011;34005;48.844;10.098;2023-12-20T11:07:39;5.22;;;2.15;;
48215;SDS011;34005;48.844;10.098;2023-12-20T11:10:16;4.50;;;2.00;;
48215;SDS011;34005;48.844;10.098;2023-12-20T11:15:21;4.03;;;2.50;;
48215;SDS011;34005;48.844;10.098;2023-12-20T11:17:54;3.78;;;2.30;;
48215;SDS011;34005;48.844;10.098;2023-12-20T11:20:23;6.20;;;2.75;;
48215;SDS011;34005;48.844;10.098;2023-12-20T11:23:01;5.65;;;1.98;;
48215;SDS011;34005;48.844;10.098;2023-12-20T11:25:31;4.35;;;2.00;;
48215;SDS011;34005;48.844;10.098;2023-12-20T11:28:15;5.32;;;2.20;;
48215;SDS011;34005;48.844;10.098;2023-12-20T11:30:50;3.63;;;2.42;;
48215;SDS011;34005;48.844;10.098;2023-12-20T11:33:23;3.35;;;2.25;;
48215;SDS011;34005;48.844;10.098;2023-12-20T11:35:56;5.80;;;2.17;;
48215;SDS011;34005;48.844;10.098;2023-12-20T11:38:26;6.65;;;2.00;;
48215;SDS011;34005;48.844;10.098;2023-12-20T11:40:55;5.47;;;2.17;;
48215;SDS011;34005;48.844;10.098;2023-12-20T11:43:30;6.05;;;2.00;;
48215;SDS011;34005;48.844;10.098;2023-12-20T11:46:04;2.50;;;1.33;;
48215;SDS011;34005;48.844;10.098;2023-12-20T11:48:36;3.53;;;1.33;;
48215;SDS011;34005;48.844;10.098;2023-12-20T11:51:09;3.25;;;1.70;;
48215;SDS011;34005;48.844;10.098;2023-12-20T11:53:39;2.78;;;1.27;;
48215;SDS011;34005;48.844;10.098;2023-12-20T11:56:09;4.30;;;1.17;;
48215;SDS011;34005;48.844;10.098;2023-12-20T11:58:39;3.33;;;1.33;;
48215;SDS011;34005;48.844;10.098;2023-12-20T12:01:09;3.20;;;1.23;;
48215;SDS011;34005;48.844;10.098;2023-12-20T12:03:39;4.90;;;1.60;;
48215;SDS011;34005;48.844;10.098;2023-12-20T12:06:07;7.53;;;1.30;;
48215;SDS011;34005;48.844;10.098;2023-12-20T12:08:36;2.03;;;1.20;;
48215;SDS011;34005;48.844;10.098;2023-12-20T12:11:05;5.05;;;2.03;;
48215;SDS011;34005;48.844;10.098;2023-12-20T12:13:33;8.20;;;1.55;;
48215;SDS011;34005;48.844;10.098;2023-12-20T12:16:02;5.13;;;1.02;;
48215;SDS011;34005;48.844;10.098;2023-12-20T12:18:31;1.55;;;0.93;;
48215;SDS011;34005;48.844;10.098;2023-12-20T12:21:01;3.35;;;1.70;;
48215;SDS011;34005;48.844;10.098;2023-12-20T12:23:38;4.05;;;1.40;;
48215;SDS011;34005;48.844;10.098;2023-12-20T12:26:06;2.55;;;1.00;;
48215;SDS011;34005;48.844;10.098;2023-12-20T12:28:35;5.38;;;1.15;;
48215;SDS011;34005;48.844;10.098;2023-12-20T12:31:03;3.80;;;1.33;;
48215;SDS011;34005;48.844;10.098;2023-12-20T12:33:33;3.28;;;1.35;;
48215;SDS011;34005;48.844;10.098;2023-12-20T12:36:01;7.38;;;1.70;;
48215;SDS011;34005;48.844;10.098;2023-12-20T12:38:32;3.47;;;1.05;;
48215;SDS011;34005;48.844;10.098;2023-12-20T12:41:00;3.03;;;1.50;;
48215;SDS011;34005;48.844;10.098;2023-12-20T12:43:29;3.63;;;1.35;;
48215;SDS011;34005;48.844;10.098;2023-12-20T12:46:02;4.47;;;1.10;;
48215;SDS011;34005;48.844;10.098;2023-12-20T12:48:30;2.83;;;1.10;;
48215;SDS011;34005;48.844;10.098;2023-12-20T12:51:00;6.35;;;2.45;;
48215;SDS011;34005;48.844;10.098;2023-12-20T12:53:29;7.82;;;2.22;;
48215;SDS011;34005;48.844;10.098;2023-12-20T12:55:57;5.28;;;1.27;;
48215;SDS011;34005;48.844;10.098;2023-12-20T12:58:25;5.72;;;1.88;;
48215;SDS011;34005;48.844;10.098;2023-12-20T13:00:52;5.22;;;1.42;;
48215;SDS011;34005;48.844;10.098;2023-12-20T13:03:21;4.18;;;1.35;;
48215;SDS011;34005;48.844;10.098;2023-12-20T13:05:49;3.92;;;1.27;;
48215;SDS011;34005;48.844;10.098;2023-12-20T13:08:18;3.72;;;1.70;;
48215;SDS011;34005;48.844;10.098;2023-12-20T13:10:46;4.55;;;1.30;;
48215;SDS011;34005;48.844;10.098;2023-12-20T13:13:13;7.03;;;2.25;;
48215;SDS011;34005;48.844;10.098;2023-12-20T13:15:41;4.68;;;2.13;;
48215;SDS011;34005;48.844;10.098;2023-12-20T13:20:42;6.78;;;1.80;;
48215;SDS011;34005;48.844;10.098;2023-12-20T13:23:09;9.15;;;1.92;;
48215;SDS011;34005;48.844;10.098;2023-12-20T13:25:38;6.70;;;1.95;;
48215;SDS011;34005;48.844;10.098;2023-12-20T13:28:06;4.22;;;1.30;;
48215;SDS011;34005;48.844;10.098;2023-12-20T13:30:34;5.55;;;1.58;;
48215;SDS011;34005;48.844;10.098;2023-12-20T13:33:02;5.05;;;1.67;;
48215;SDS011;34005;48.844;10.098;2023-12-20T13:35:30;5.30;;;1.63;;
48215;SDS011;34005;48.844;10.098;2023-12-20T13:37:58;4.55;;;1.90;;
48215;SDS011;34005;48.844;10.098;2023-12-20T13:40:27;8.75;;;2.08;;
48215;SDS011;34005;48.844;10.098;2023-12-20T13:42:57;4.57;;;1.58;;
48215;SDS011;34005;48.844;10.098;2023-12-20T13:45:25;4.65;;;1.60;;
48215;SDS011;34005;48.844;10.098;2023-12-20T13:47:53;3.83;;;1.30;;
48215;SDS011;34005;48.844;10.098;2023-12-20T13:50:21;6.80;;;1.42;;
48215;SDS011;34005;48.844;10.098;2023-12-20T13:52:50;4.80;;;1.80;;
48215;SDS011;34005;48.844;10.098;2023-12-20T13:55:17;3.40;;;1.42;;
48215;SDS011;34005;48.844;10.098;2023-12-20T13:57:48;5.82;;;1.55;;
48215;SDS011;34005;48.844;10.098;2023-12-20T14:00:22;10.57;;;2.13;;
48215;SDS011;34005;48.844;10.098;2023-12-20T14:02:51;3.85;;;1.60;;
48215;SDS011;34005;48.844;10.098;2023-12-20T14:05:18;6.40;;;1.90;;
48215;SDS011;34005;48.844;10.098;2023-12-20T14:07:51;2.13;;;1.20;;
48215;SDS011;34005;48.844;10.098;2023-12-20T14:10:19;5.25;;;1.35;;
48215;SDS011;34005;48.844;10.098;2023-12-20T14:12:47;8.73;;;2.60;;
48215;SDS011;34005;48.844;10.098;2023-12-20T14:15:16;1.88;;;1.20;;
48215;SDS011;34005;48.844;10.098;2023-12-20T14:17:45;3.60;;;1.77;;
48215;SDS011;34005;48.844;10.098;2023-12-20T14:20:14;4.22;;;1.90;;
48215;SDS011;34005;48.844;10.098;2023-12-20T14:22:44;5.95;;;1.95;;
48215;SDS011;34005;48.844;10.098;2023-12-20T14:25:13;6.70;;;1.45;;
48215;SDS011;34005;48.844;10.098;2023-12-20T14:27:42;3.13;;;1.80;;
48215;SDS011;34005;48.844;10.098;2023-12-20T14:30:12;4.20;;;2.05;;
48215;SDS011;34005;48.844;10.098;2023-12-20T14:32:41;4.63;;;1.58;;
48215;SDS011;34005;48.844;10.098;2023-12-20T14:35:14;6.47;;;1.90;;
48215;SDS011;34005;48.844;10.098;2023-12-20T14:37:44;4.57;;;1.67;;
48215;SDS011;34005;48.844;10.098;2023-12-20T14:40:12;4.30;;;1.75;;
48215;SDS011;34005;48.844;10.098;2023-12-20T14:42:43;5.88;;;1.83;;
48215;SDS011;34005;48.844;10.098;2023-12-20T14:45:26;2.80;;;1.83;;
48215;SDS011;34005;48.844;10.098;2023-12-20T14:47:59;4.03;;;2.00;;
48215;SDS011;34005;48.844;10.098;2023-12-20T15:14:08;25.10;;;6.93;;
48215;SDS011;34005;48.844;10.098;2023-12-20T15:16:38;34.92;;;10.57;;